Time;durP1;ratioP1;P1;durP2;ratioP2;P2;SDS_P1;SDS_P2;PMS_P1;PMS_P2;Temp;Humidity;BMP_temperature;BMP_pressure;BME280_temperature;BME280_humidity;BME280_pressure;Samples;Min_cycle;Max_cycle;Signal;HPM_P1;HPM_P2
2022/10/17 00:00:45;;;;;;;;;;;;;;;12.35;100.00;98997.66;7399763;19;19940;-49
2022/10/17 00:15:50;;;;;;;;;;;;;;;12.11;100.00;99004.28;7401036;19;19952;-48
2022/10/17 00:18:20;;;;;;;;;;;;;;;12.22;100.00;99001.91;7402759;19;19915;-48
2022/10/17 00:23:53;;;;;;;;;;;;;;;12.27;100.00;99007.81;7400767;19;19944;-48
2022/10/17 00:29:27;;;;;;;;;;;;;;;12.37;100.00;99011.59;7399076;19;20296;-49
2022/10/17 00:35:12;;;;;;;;;;;;;;;12.09;100.00;99019.38;7400802;19;19933;-49
2022/10/17 00:41:19;;;;;;;;;;;;;;;12.33;100.00;99020.63;7397269;19;19925;-50
2022/10/17 00:47:13;;;;;;;;;;;;;;;12.09;100.00;99015.88;7396973;19;20043;-52
2022/10/17 00:55:56;;;;;;;;;;;;;;;11.80;100.00;99017.41;7401610;19;19919;-50
2022/10/17 01:01:51;;;;;;;;;;;;;;;12.12;100.00;99013.91;7396163;19;19925;-48
2022/10/17 01:07:55;;;;;;;;;;;;;;;12.14;100.00;99014.69;7395181;19;19986;-49
2022/10/17 01:22:12;;;;;;;;;;;;;;;12.13;100.00;99020.91;7395770;19;19936;-49
2022/10/17 01:34:22;;;;;;;;;;;;;;;12.14;100.00;99013.81;7395202;19;19997;-48
2022/10/17 01:40:17;;;;;;;;;;;;;;;11.94;100.00;99014.94;7396301;19;19940;-48
2022/10/17 01:51:55;;;;;;;;;;;;;;;12.05;100.00;99024.88;7403182;19;19925;-49
2022/10/17 01:57:48;;;;;;;;;;;;;;;12.16;100.00;99017.25;7394350;19;20306;-47
2022/10/17 02:03:29;;;;;;;;;;;;;;;12.11;100.00;99014.84;7399040;19;19926;-48
2022/10/17 02:09:25;;;;;;;;;;;;;;;12.06;100.00;99019.53;7392584;19;20344;-48
2022/10/17 02:30:36;;;;;;;;;;;;;;;11.89;100.00;99022.19;7404589;19;19929;-47
2022/10/17 02:36:14;;;;;;;;;;;;;;;12.09;100.00;99018.50;7401326;19;20071;-50
2022/10/17 02:41:52;;;;;;;;;;;;;;;11.95;100.00;99029.81;7400699;19;19919;-48
2022/10/17 02:47:39;;;;;;;;;;;;;;;11.94;100.00;99025.47;7400512;19;19922;-48
2022/10/17 02:50:40;;;;;;;;;;;;;;;12.07;100.00;99021.22;7400447;19;19935;-49
2022/10/17 02:53:12;;;;;;;;;;;;;;;11.95;100.00;99028.94;7400886;19;19943;-48
2022/10/17 02:58:52;;;;;;;;;;;;;;;11.92;100.00;99016.78;7397360;19;19931;-48
2022/10/17 03:04:37;;;;;;;;;;;;;;;11.82;100.00;99010.25;7402496;19;19923;-49
2022/10/17 03:10:00;;;;;;;;;;;;;;;11.87;100.00;99015.28;7398309;19;20215;-48
2022/10/17 03:12:29;;;;;;;;;;;;;;;11.98;100.00;99020.88;7403359;19;19903;-58
2022/10/17 03:15:01;;;;;;;;;;;;;;;11.88;100.00;99015.22;7397142;19;19942;-48
2022/10/17 03:17:35;;;;;;;;;;;;;;;11.84;100.00;99024.22;7400029;19;19927;-48
2022/10/17 03:20:04;;;;;;;;;;;;;;;11.96;100.00;99018.31;7399076;19;20339;-49
2022/10/17 03:22:49;;;;;;;;;;;;;;;11.96;100.00;99023.59;7401118;19;20212;-48
2022/10/17 03:25:18;;;;;;;;;;;;;;;12.03;100.00;99029.38;7401381;19;20025;-49
2022/10/17 03:34:09;;;;;;;;;;;;;;;11.90;100.00;99047.59;7400501;19;19930;-47
2022/10/17 03:36:39;;;;;;;;;;;;;;;11.92;100.00;99052.84;7403914;19;19915;-49
2022/10/17 03:42:14;;;;;;;;;;;;;;;11.80;100.00;99062.25;7403461;19;19939;-48
2022/10/17 03:44:44;;;;;;;;;;;;;;;11.69;100.00;99061.09;7400088;19;19923;-49
2022/10/17 03:50:18;;;;;;;;;;;;;;;11.72;100.00;99056.53;7401633;19;20293;-48
2022/10/17 03:55:52;;;;;;;;;;;;;;;11.83;100.00;99058.59;7402042;19;20496;-48
2022/10/17 03:58:21;;;;;;;;;;;;;;;11.72;100.00;99053.88;7401389;19;19915;-48
2022/10/17 04:00:57;;;;;;;;;;;;;;;11.90;100.00;99062.59;7401945;19;19939;-49
2022/10/17 04:03:26;;;;;;;;;;;;;;;11.90;100.00;99065.25;7401332;19;19915;-49
2022/10/17 04:06:00;;;;;;;;;;;;;;;11.80;100.00;99069.28;7398249;19;19918;-49
2022/10/17 04:09:26;;;;;;;;;;;;;;;11.87;100.00;99068.03;7401683;19;19931;-49
2022/10/17 04:12:01;;;;;;;;;;;;;;;11.76;100.00;99065.13;7402144;19;19915;-49
2022/10/17 04:14:32;;;;;;;;;;;;;;;11.90;100.00;99071.34;7394805;19;19918;-59
2022/10/17 04:17:02;;;;;;;;;;;;;;;11.95;100.00;99072.00;7398179;19;20303;-49
2022/10/17 04:19:32;;;;;;;;;;;;;;;11.83;100.00;99072.63;7397058;19;19915;-51
2022/10/17 04:22:08;;;;;;;;;;;;;;;11.66;100.00;99070.00;7399993;19;19915;-48
2022/10/17 04:24:39;;;;;;;;;;;;;;;11.99;100.00;99070.91;7400753;19;19919;-48
2022/10/17 04:27:54;;;;;;;;;;;;;;;11.53;100.00;99074.19;7395569;19;20315;-48
2022/10/17 04:30:23;;;;;;;;;;;;;;;11.88;100.00;99081.13;7396839;19;20319;-47
2022/10/17 04:32:52;;;;;;;;;;;;;;;11.55;100.00;99076.75;7396954;19;20302;-48
2022/10/17 04:35:36;;;;;;;;;;;;;;;11.53;100.00;99079.47;7397790;19;19923;-48
2022/10/17 04:38:11;;;;;;;;;;;;;;;11.77;100.00;99080.00;7395350;19;19907;-48
2022/10/17 04:43:54;;;;;;;;;;;;;;;11.49;100.00;99079.72;7400099;19;20025;-49
2022/10/17 04:46:24;;;;;;;;;;;;;;;11.55;100.00;99068.84;7397853;19;19930;-49
2022/10/17 04:58:35;;;;;;;;;;;;;;;11.46;100.00;99070.22;7397027;19;19927;-48
2022/10/17 05:04:09;;;;;;;;;;;;;;;11.80;100.00;99054.34;7397578;19;19910;-48
2022/10/17 05:06:39;;;;;;;;;;;;;;;11.89;100.00;99061.75;7397035;19;19917;-50
2022/10/17 05:12:28;;;;;;;;;;;;;;;11.95;100.00;99061.47;7398799;19;19911;-48
2022/10/17 05:15:00;;;;;;;;;;;;;;;11.93;100.00;99062.47;7397773;19;19919;-50
2022/10/17 05:17:31;;;;;;;;;;;;;;;12.01;100.00;99073.47;7398158;19;20247;-49
2022/10/17 05:23:05;;;;;;;;;;;;;;;11.82;100.00;99076.19;7399023;19;20299;-49
2022/10/17 05:25:40;;;;;;;;;;;;;;;11.61;100.00;99076.47;7399976;19;20259;-51
2022/10/17 05:28:09;;;;;;;;;;;;;;;11.92;100.00;99074.81;7400052;19;19919;-47
2022/10/17 05:33:38;;;;;;;;;;;;;;;11.97;100.00;99077.19;7400512;19;19930;-48
2022/10/17 05:42:16;;;;;;;;;;;;;;;11.82;100.00;99114.91;7390973;19;19982;-48
2022/10/17 05:44:47;;;;;;;;;;;;;;;11.96;100.00;99118.53;7393690;19;19922;-49
2022/10/17 05:47:19;;;;;;;;;;;;;;;12.00;100.00;99116.59;7393773;19;19915;-49
2022/10/17 05:49:52;;;;;;;;;;;;;;;11.86;100.00;99119.91;7389969;19;19998;-48
2022/10/17 05:52:45;;;;;;;;;;;;;;;12.07;100.00;99116.19;7397768;19;19918;-49
2022/10/17 05:55:17;;;;;;;;;;;;;;;11.88;100.00;99120.69;7393187;19;20289;-51
2022/10/17 05:57:46;;;;;;;;;;;;;;;11.87;100.00;99124.28;7387027;19;20539;-49
2022/10/17 06:00:19;;;;;;;;;;;;;;;11.98;100.00;99127.25;7386982;19;20035;-53
2022/10/17 06:02:56;;;;;;;;;;;;;;;11.90;100.00;99128.53;7389022;19;19941;-48
2022/10/17 06:05:29;;;;;;;;;;;;;;;11.94;100.00;99127.47;7393805;19;19958;-49
2022/10/17 06:08:01;;;;;;;;;;;;;;;12.09;100.00;99124.88;7395505;19;19913;-48
2022/10/17 06:10:32;;;;;;;;;;;;;;;12.10;100.00;99133.63;7393709;19;19922;-49
2022/10/17 06:13:02;;;;;;;;;;;;;;;12.31;100.00;99140.41;7400993;19;20017;-49
2022/10/17 06:18:37;;;;;;;;;;;;;;;12.19;100.00;99147.19;7400365;19;20007;-52
2022/10/17 06:21:11;;;;;;;;;;;;;;;12.46;100.00;99148.38;7396771;19;19948;-51
2022/10/17 06:23:46;;;;;;;;;;;;;;;12.54;100.00;99162.00;7399132;19;19917;-48
2022/10/17 06:26:26;;;;;;;;;;;;;;;12.73;100.00;99149.50;7399383;19;19974;-49
2022/10/17 06:28:56;;;;;;;;;;;;;;;12.90;100.00;99164.41;7396939;19;19939;-50
2022/10/17 06:31:26;;;;;;;;;;;;;;;12.88;100.00;99169.78;7395138;19;19919;-48
2022/10/17 06:33:58;;;;;;;;;;;;;;;12.71;100.00;99172.47;7400789;19;19915;-54
2022/10/17 06:36:30;;;;;;;;;;;;;;;12.87;100.00;99173.34;7397494;19;20342;-51
2022/10/17 06:39:01;;;;;;;;;;;;;;;12.89;100.00;99171.47;7393378;19;19918;-51
2022/10/17 06:41:50;;;;;;;;;;;;;;;12.89;100.00;99182.03;7398456;19;20282;-49
2022/10/17 06:44:24;;;;;;;;;;;;;;;12.97;100.00;99179.84;7397422;19;19959;-50
2022/10/17 06:47:09;;;;;;;;;;;;;;;13.24;100.00;99180.97;7401729;19;20379;-50
2022/10/17 06:56:05;;;;;;;;;;;;;;;13.25;100.00;99193.22;7397312;19;20448;-49
2022/10/17 06:58:45;;;;;;;;;;;;;;;13.34;100.00;99198.00;7401386;19;19938;-51
2022/10/17 07:01:39;;;;;;;;;;;;;;;13.45;100.00;99192.97;7401787;19;19911;-51
2022/10/17 07:04:19;;;;;;;;;;;;;;;13.36;100.00;99184.66;7399615;19;19942;-48
2022/10/17 07:06:51;;;;;;;;;;;;;;;13.68;100.00;99194.25;7398306;19;19943;-50
2022/10/17 07:09:42;;;;;;;;;;;;;;;13.65;100.00;99195.28;7399465;19;19943;-49
2022/10/17 07:21:40;;;;;;;;;;;;;;;13.81;100.00;99197.91;7394501;19;19915;-56
2022/10/17 07:24:18;;;;;;;;;;;;;;;13.99;100.00;99204.75;7401426;19;19922;-49
2022/10/17 07:32:59;;;;;;;;;;;;;;;14.13;100.00;99221.53;7399387;19;19914;-49
2022/10/17 07:35:42;;;;;;;;;;;;;;;14.13;100.00;99221.53;7399912;19;20241;-51
2022/10/17 07:38:18;;;;;;;;;;;;;;;14.10;100.00;99221.69;7394170;19;19914;-49
2022/10/17 07:40:55;;;;;;;;;;;;;;;14.39;100.00;99217.31;7392088;19;19915;-52
2022/10/17 07:43:51;;;;;;;;;;;;;;;14.35;100.00;99221.94;7399556;19;20345;-48
2022/10/17 07:46:30;;;;;;;;;;;;;;;14.32;100.00;99214.19;7398441;19;19986;-48
2022/10/17 07:49:03;;;;;;;;;;;;;;;14.40;100.00;99216.38;7387447;19;19914;-52
2022/10/17 07:51:32;;;;;;;;;;;;;;;14.44;100.00;99205.50;7385367;19;19945;-58
2022/10/17 07:54:04;;;;;;;;;;;;;;;14.58;100.00;99212.63;7385797;19;20316;-53
2022/10/17 07:56:33;;;;;;;;;;;;;;;14.74;100.00;99209.84;7388071;19;19915;-50
2022/10/17 07:59:05;;;;;;;;;;;;;;;14.78;100.00;99212.22;7386581;19;20377;-52
2022/10/17 08:01:34;;;;;;;;;;;;;;;14.87;100.00;99216.91;7388385;19;19911;-53
2022/10/17 08:04:03;;;;;;;;;;;;;;;14.68;100.00;99216.38;7389029;19;19935;-58
2022/10/17 08:06:32;;;;;;;;;;;;;;;14.72;100.00;99209.09;7383721;19;19911;-56
2022/10/17 08:09:01;;;;;;;;;;;;;;;14.83;100.00;99212.75;7387899;19;20294;-50
2022/10/17 08:11:34;;;;;;;;;;;;;;;14.82;100.00;99218.16;7387815;19;19921;-51
2022/10/17 08:14:04;;;;;;;;;;;;;;;14.98;100.00;99217.09;7382765;19;19915;-50
2022/10/17 08:16:33;;;;;;;;;;;;;;;15.11;100.00;99217.16;7387425;19;19918;-52
2022/10/17 08:19:07;;;;;;;;;;;;;;;15.18;100.00;99215.88;7387552;19;20279;-53
2022/10/17 08:21:37;;;;;;;;;;;;;;;15.11;100.00;99214.53;7381939;19;19914;-52
2022/10/17 08:24:06;;;;;;;;;;;;;;;15.19;100.00;99217.59;7387503;19;19919;-51
2022/10/17 08:26:38;;;;;;;;;;;;;;;15.23;100.00;99214.63;7388068;19;19979;-56
2022/10/17 08:29:07;;;;;;;;;;;;;;;15.45;100.00;99220.25;7385068;19;20367;-53
2022/10/17 08:31:36;;;;;;;;;;;;;;;15.44;100.00;99223.00;7387941;19;20254;-50
2022/10/17 08:34:22;;;;;;;;;;;;;;;15.45;100.00;99222.91;7389633;19;19919;-51
2022/10/17 08:36:53;;;;;;;;;;;;;;;15.42;100.00;99219.59;7389869;19;19918;-51
2022/10/17 08:39:23;;;;;;;;;;;;;;;15.60;100.00;99207.78;7390222;19;19921;-53
2022/10/17 08:42:01;;;;;;;;;;;;;;;15.42;100.00;99209.00;7383336;19;19911;-59
2022/10/17 08:44:45;;;;;;;;;;;;;;;15.41;100.00;99217.88;7389949;19;19919;-52
2022/10/17 08:47:16;;;;;;;;;;;;;;;15.46;100.00;99223.75;7384727;19;19923;-54
2022/10/17 08:49:48;;;;;;;;;;;;;;;15.68;100.00;99224.06;7389516;19;19917;-52
2022/10/17 08:52:22;;;;;;;;;;;;;;;15.78;100.00;99223.34;7385439;19;19915;-49
2022/10/17 08:54:52;;;;;;;;;;;;;;;15.60;100.00;99218.41;7384852;19;20350;-50
2022/10/17 08:57:24;;;;;;;;;;;;;;;15.57;100.00;99227.38;7389380;19;19925;-49
2022/10/17 08:59:54;;;;;;;;;;;;;;;15.70;100.00;99214.16;7391441;19;19914;-52
2022/10/17 09:02:39;;;;;;;;;;;;;;;15.72;100.00;99225.56;7386406;19;20289;-50
2022/10/17 09:05:23;;;;;;;;;;;;;;;15.76;100.00;99224.38;7389193;19;19925;-49
2022/10/17 09:07:56;;;;;;;;;;;;;;;15.77;100.00;99218.13;7391041;19;19984;-50
2022/10/17 09:10:32;;;;;;;;;;;;;;;15.89;100.00;99222.63;7389762;19;19926;-52
2022/10/17 09:13:09;;;;;;;;;;;;;;;15.97;100.00;99222.97;7383348;19;20333;-51
2022/10/17 09:15:49;;;;;;;;;;;;;;;16.03;100.00;99226.06;7389375;19;20335;-49
2022/10/17 09:18:20;;;;;;;;;;;;;;;16.06;100.00;99217.06;7384756;19;19919;-53
2022/10/17 09:20:53;;;;;;;;;;;;;;;16.11;100.00;99214.94;7389211;19;19927;-52
2022/10/17 09:23:23;;;;;;;;;;;;;;;16.12;100.00;99217.47;7389220;19;19918;-50
2022/10/17 09:26:00;;;;;;;;;;;;;;;16.03;100.00;99226.06;7381619;19;20305;-51
2022/10/17 09:28:34;;;;;;;;;;;;;;;16.09;100.00;99220.38;7388535;19;19936;-51
2022/10/17 09:31:13;;;;;;;;;;;;;;;16.05;100.00;99215.38;7382452;19;19914;-57
2022/10/17 09:33:43;;;;;;;;;;;;;;;16.10;100.00;99219.41;7388775;19;19918;-52
2022/10/17 09:36:13;;;;;;;;;;;;;;;16.14;100.00;99217.38;7384463;19;19911;-53
2022/10/17 09:38:46;;;;;;;;;;;;;;;16.09;100.00;99217.72;7381320;19;19915;-49
2022/10/17 09:41:18;;;;;;;;;;;;;;;16.03;100.00;99217.22;7386519;19;19966;-48
2022/10/17 09:43:50;;;;;;;;;;;;;;;16.16;100.00;99212.84;7383361;19;19911;-54
2022/10/17 09:46:29;;;;;;;;;;;;;;;16.09;100.00;99216.84;7386993;19;21018;-52
2022/10/17 09:49:02;;;;;;;;;;;;;;;16.28;100.00;99212.00;7388236;19;20297;-50
2022/10/17 09:51:32;;;;;;;;;;;;;;;16.32;100.00;99208.16;7382346;19;20722;-50
2022/10/17 09:54:03;;;;;;;;;;;;;;;16.61;100.00;99210.50;7385958;19;19914;-51
2022/10/17 09:56:32;;;;;;;;;;;;;;;16.56;100.00;99217.09;7387396;19;19918;-53
2022/10/17 09:59:04;;;;;;;;;;;;;;;16.69;100.00;99224.09;7387052;19;19944;-52
2022/10/17 10:01:34;;;;;;;;;;;;;;;16.48;100.00;99225.59;7399181;19;19919;-49
2022/10/17 10:04:15;;;;;;;;;;;;;;;16.55;100.00;99218.03;7397352;19;20311;-50
2022/10/17 10:07:02;;;;;;;;;;;;;;;16.66;100.00;99220.78;7392003;19;19914;-49
2022/10/17 10:09:34;;;;;;;;;;;;;;;16.71;100.00;99229.31;7386587;19;19919;-49
2022/10/17 10:12:05;;;;;;;;;;;;;;;16.62;100.00;99232.59;7388587;19;19935;-49
2022/10/17 10:14:39;;;;;;;;;;;;;;;16.68;100.00;99218.91;7391623;19;19915;-51
2022/10/17 10:17:27;;;;;;;;;;;;;;;16.87;100.00;99224.63;7387068;19;20307;-51
2022/10/17 10:19:56;;;;;;;;;;;;;;;16.83;100.00;99220.47;7394873;19;19958;-50
2022/10/17 10:22:25;;;;;;;;;;;;;;;16.95;100.00;99216.97;7388218;19;19921;-51
2022/10/17 10:25:08;;;;;;;;;;;;;;;17.06;94.89;99223.22;7392408;19;19932;-50
2022/10/17 10:27:38;;;;;;;;;;;;;;;16.84;96.40;99224.81;7390534;19;19930;-57
2022/10/17 10:33:07;;;;;;;;;;;;;;;16.83;97.16;99228.44;7392766;19;19939;-58
2022/10/17 10:35:37;;;;;;;;;;;;;;;16.77;100.00;99226.22;7393474;19;19914;-50
2022/10/17 10:38:18;;;;;;;;;;;;;;;16.90;99.60;99225.25;7390194;19;20331;-49
2022/10/17 10:40:50;;;;;;;;;;;;;;;16.78;99.74;99215.47;7395646;19;19906;-50
2022/10/17 10:43:23;;;;;;;;;;;;;;;16.84;98.51;99223.03;7394898;19;19935;-49
2022/10/17 10:45:54;;;;;;;;;;;;;;;16.84;100.00;99216.84;7396440;19;19931;-49
2022/10/17 10:48:27;;;;;;;;;;;;;;;16.92;98.29;99212.69;7397416;19;19948;-49
2022/10/17 10:50:59;;;;;;;;;;;;;;;17.21;96.24;99208.81;7398802;19;19918;-50
2022/10/17 10:53:35;;;;;;;;;;;;;;;17.00;97.90;99217.50;7391408;19;20255;-50
2022/10/17 10:56:06;;;;;;;;;;;;;;;17.12;100.00;99216.63;7400108;19;19918;-49
2022/10/17 10:58:39;;;;;;;;;;;;;;;16.94;100.00;99204.59;7397681;19;19919;-50
2022/10/17 11:01:13;;;;;;;;;;;;;;;16.78;100.00;99214.66;7393128;19;19915;-52
2022/10/17 11:03:58;;;;;;;;;;;;;;;17.16;99.75;99196.81;7392203;19;20302;-50
2022/10/17 11:06:29;;;;;;;;;;;;;;;17.32;97.22;99205.38;7392435;19;20425;-49
2022/10/17 11:09:07;;;;;;;;;;;;;;;17.26;99.36;99198.69;7393356;19;19914;-49
2022/10/17 11:11:39;;;;;;;;;;;;;;;17.26;97.25;99201.34;7398595;19;19930;-49
2022/10/17 11:23:29;;;;;;;;;;;;;;;17.28;99.70;99209.22;7407734;19;19934;-49
2022/10/17 11:32:33;;;;;;;;;;;;;;;17.21;100.00;99194.66;7397301;19;19921;-48
2022/10/17 11:44:22;;;;;;;;;;;;;;;17.45;99.51;99198.22;7399901;19;19947;-50
2022/10/17 11:46:53;;;;;;;;;;;;;;;17.23;99.76;99192.75;7389238;19;19934;-52
2022/10/17 11:49:24;;;;;;;;;;;;;;;17.39;97.04;99188.88;7393576;19;19925;-49
2022/10/17 11:55:01;;;;;;;;;;;;;;;17.50;99.12;99188.06;7395102;19;19930;-50
2022/10/17 11:57:39;;;;;;;;;;;;;;;17.10;100.00;99184.81;7391424;19;19915;-53
2022/10/17 12:09:28;;;;;;;;;;;;;;;17.78;99.85;99180.56;7401437;19;20321;-49
2022/10/17 12:15:33;;;;;;;;;;;;;;;17.43;100.00;99171.72;7401645;19;19913;-49
2022/10/17 12:18:04;;;;;;;;;;;;;;;17.74;98.36;99164.97;7394617;19;19914;-49
2022/10/17 12:20:34;;;;;;;;;;;;;;;17.74;95.98;99164.97;7402865;19;19923;-50
2022/10/17 12:29:06;;;;;;;;;;;;;;;17.66;95.95;99170.00;7400052;19;19910;-54
2022/10/17 12:34:42;;;;;;;;;;;;;;;17.72;98.50;99164.22;7399120;19;19922;-49
2022/10/17 12:37:13;;;;;;;;;;;;;;;17.88;96.41;99161.28;7391996;19;19944;-51
2022/10/17 12:39:44;;;;;;;;;;;;;;;17.59;99.72;99164.28;7398768;19;19924;-54
2022/10/17 12:45:41;;;;;;;;;;;;;;;17.70;99.91;99155.50;7401897;19;19937;-53
2022/10/17 12:48:11;;;;;;;;;;;;;;;17.43;100.00;99157.53;7389718;19;20307;-53
2022/10/17 12:50:55;;;;;;;;;;;;;;;17.89;98.07;99161.16;7388296;19;19914;-54
2022/10/17 12:53:30;;;;;;;;;;;;;;;17.95;96.00;99160.69;7386222;19;19915;-49
2022/10/17 12:56:01;;;;;;;;;;;;;;;17.80;98.29;99163.66;7390808;19;20363;-53
2022/10/17 12:58:31;;;;;;;;;;;;;;;17.57;99.36;99157.38;7389189;19;19922;-54
2022/10/17 13:01:00;;;;;;;;;;;;;;;17.70;97.97;99158.16;7399917;19;19923;-53
2022/10/17 13:06:38;;;;;;;;;;;;;;;18.05;95.92;99161.69;7402414;19;20017;-50
2022/10/17 13:09:25;;;;;;;;;;;;;;;17.55;98.97;99160.16;7399420;19;20293;-49
2022/10/17 13:12:00;;;;;;;;;;;;;;;17.84;96.54;99159.81;7395298;19;19915;-50
2022/10/17 13:14:44;;;;;;;;;;;;;;;17.52;99.46;99159.53;7400026;19;19917;-54
2022/10/17 13:31:42;;;;;;;;;;;;;;;17.59;99.34;99150.97;7377740;19;19928;-59
2022/10/17 13:34:20;;;;;;;;;;;;;;;17.91;96.20;99148.56;7384865;19;19979;-49
2022/10/17 13:36:50;;;;;;;;;;;;;;;17.83;97.46;99140.31;7384527;19;20365;-50
2022/10/17 13:39:21;;;;;;;;;;;;;;;18.02;93.89;99140.59;7381497;19;19921;-50
2022/10/17 13:41:50;;;;;;;;;;;;;;;18.00;94.30;99144.34;7385143;19;19915;-53
2022/10/17 13:44:21;;;;;;;;;;;;;;;18.12;94.09;99138.94;7386927;19;19910;-53
2022/10/17 13:46:55;;;;;;;;;;;;;;;18.02;94.79;99140.59;7386471;19;20942;-49
2022/10/17 13:49:32;;;;;;;;;;;;;;;17.92;94.48;99142.28;7396621;19;19918;-51
2022/10/17 13:52:02;;;;;;;;;;;;;;;17.82;95.53;99133.31;7398308;19;19930;-53
2022/10/17 13:57:22;;;;;;;;;;;;;;;17.70;96.83;99134.22;7386910;19;19918;-59
2022/10/17 13:59:53;;;;;;;;;;;;;;;17.72;96.33;99137.59;7387447;19;19925;-52
2022/10/17 14:02:26;;;;;;;;;;;;;;;17.73;96.47;99133.94;7386334;19;20307;-52
2022/10/17 14:05:08;;;;;;;;;;;;;;;17.44;99.46;99140.63;7386976;19;20296;-50
2022/10/17 14:07:39;;;;;;;;;;;;;;;17.35;100.00;99138.66;7393925;19;20325;-50
2022/10/17 14:13:22;;;;;;;;;;;;;;;17.57;98.42;99130.75;7387937;19;19952;-54
2022/10/17 14:15:53;;;;;;;;;;;;;;;17.71;97.49;99135.91;7391822;19;19919;-52
2022/10/17 14:18:26;;;;;;;;;;;;;;;17.50;100.00;99137.50;7393533;19;19923;-55
2022/10/17 14:20:56;;;;;;;;;;;;;;;17.40;100.00;99129.38;7391599;19;19915;-51
2022/10/17 14:29:25;;;;;;;;;;;;;;;17.34;100.00;99147.59;7401692;19;20296;-52
2022/10/17 14:32:10;;;;;;;;;;;;;;;17.55;99.51;99144.19;7399068;19;19944;-54
2022/10/17 14:37:48;;;;;;;;;;;;;;;17.37;100.00;99142.06;7400874;19;19921;-50
2022/10/17 14:53:31;;;;;;;;;;;;;;;17.05;100.00;99155.06;7402449;19;19978;-51
2022/10/17 14:59:16;;;;;;;;;;;;;;;17.05;100.00;99151.53;7397613;19;19998;-52
2022/10/17 15:05:08;;;;;;;;;;;;;;;17.13;100.00;99147.38;7400117;19;19978;-52
2022/10/17 15:13:46;;;;;;;;;;;;;;;17.08;100.00;99151.31;7404897;19;19914;-54
2022/10/17 15:19:23;;;;;;;;;;;;;;;16.72;100.00;99135.34;7392490;19;20416;-52
2022/10/17 15:21:52;;;;;;;;;;;;;;;16.56;100.00;99132.09;7380848;19;19921;-50
2022/10/17 15:24:21;;;;;;;;;;;;;;;16.58;100.00;99141.63;7392142;19;19922;-53
2022/10/17 15:26:51;;;;;;;;;;;;;;;16.45;100.00;99143.44;7379596;19;20232;-51
2022/10/17 15:29:31;;;;;;;;;;;;;;;16.38;100.00;99147.50;7381989;19;20266;-52
2022/10/17 15:32:07;;;;;;;;;;;;;;;16.34;100.00;99137.22;7386229;19;19926;-56
2022/10/17 15:34:39;;;;;;;;;;;;;;;16.07;100.00;99145.28;7373748;19;19918;-55
2022/10/17 15:37:16;;;;;;;;;;;;;;;16.03;100.00;99135.78;7388540;19;19931;-52
2022/10/17 15:39:46;;;;;;;;;;;;;;;15.86;100.00;99137.91;7387294;19;19935;-54
2022/10/17 15:42:16;;;;;;;;;;;;;;;15.81;100.00;99137.34;7382888;19;20314;-57
2022/10/17 15:44:48;;;;;;;;;;;;;;;15.77;100.00;99128.75;7385590;19;19922;-51
2022/10/17 15:47:23;;;;;;;;;;;;;;;15.75;100.00;99116.56;7388322;19;19936;-55
2022/10/17 15:49:55;;;;;;;;;;;;;;;15.65;100.00;99129.59;7382293;19;20787;-53
2022/10/17 15:52:25;;;;;;;;;;;;;;;15.67;100.00;99119.72;7383713;19;20256;-56
2022/10/17 15:54:56;;;;;;;;;;;;;;;15.47;100.00;99124.66;7390175;19;19990;-54
2022/10/17 16:00:39;;;;;;;;;;;;;;;15.48;100.00;99121.03;7390035;19;19910;-52
2022/10/17 16:03:08;;;;;;;;;;;;;;;15.43;100.00;99121.38;7390349;19;19910;-53
2022/10/17 16:05:40;;;;;;;;;;;;;;;15.47;100.00;99122.00;7383771;19;19956;-58
2022/10/17 16:08:10;;;;;;;;;;;;;;;15.39;100.00;99124.31;7397298;19;19922;-54
2022/10/17 16:17:11;;;;;;;;;;;;;;;15.55;100.00;99125.00;7403036;19;19938;-54
2022/10/17 16:20:05;;;;;;;;;;;;;;;15.58;100.00;99123.00;7397130;19;20007;-56
2022/10/17 16:22:39;;;;;;;;;;;;;;;15.85;100.00;99122.91;7385612;19;19910;-50
2022/10/17 16:25:10;;;;;;;;;;;;;;;15.79;100.00;99128.66;7385835;19;20042;-51
2022/10/17 16:27:40;;;;;;;;;;;;;;;15.64;100.00;99132.34;7391028;19;19911;-54
2022/10/17 16:30:12;;;;;;;;;;;;;;;15.62;100.00;99126.28;7386723;19;20239;-59
2022/10/17 16:32:42;;;;;;;;;;;;;;;15.47;100.00;99128.16;7387657;19;20429;-54
2022/10/17 16:35:13;;;;;;;;;;;;;;;15.45;100.00;99129.22;7390685;19;19978;-54
2022/10/17 16:37:46;;;;;;;;;;;;;;;15.35;100.00;99128.13;7385714;19;19938;-59
2022/10/17 16:40:16;;;;;;;;;;;;;;;15.50;100.00;99129.75;7392954;19;20287;-53
2022/10/17 16:42:45;;;;;;;;;;;;;;;15.57;100.00;99121.28;7401348;19;20306;-50
2022/10/17 16:48:12;;;;;;;;;;;;;;;15.44;100.00;99116.91;7390316;19;20300;-50
2022/10/17 16:50:41;;;;;;;;;;;;;;;15.45;100.00;99124.75;7385790;19;19911;-53
2022/10/17 16:53:13;;;;;;;;;;;;;;;15.49;100.00;99118.28;7389312;19;19910;-54
2022/10/17 16:55:42;;;;;;;;;;;;;;;15.47;100.00;99127.31;7390837;19;19919;-55
2022/10/17 16:58:14;;;;;;;;;;;;;;;15.54;100.00;99133.91;7386697;19;19914;-53
2022/10/17 17:00:43;;;;;;;;;;;;;;;15.33;100.00;99130.03;7389179;19;20306;-51
2022/10/17 17:03:13;;;;;;;;;;;;;;;15.17;100.00;99124.91;7391218;19;19970;-53
2022/10/17 17:05:42;;;;;;;;;;;;;;;15.42;100.00;99126.78;7385869;19;20393;-49
2022/10/17 17:08:14;;;;;;;;;;;;;;;15.53;100.00;99135.69;7390658;19;19954;-50
2022/10/17 17:10:46;;;;;;;;;;;;;;;15.17;100.00;99130.19;7389286;19;19914;-54
2022/10/17 17:13:15;;;;;;;;;;;;;;;15.21;100.00;99128.19;7387439;19;20863;-49
2022/10/17 17:15:44;;;;;;;;;;;;;;;15.58;100.00;99122.13;7390580;19;19917;-54
2022/10/17 17:18:14;;;;;;;;;;;;;;;15.07;100.00;99128.19;7389040;19;19913;-53
2022/10/17 17:20:43;;;;;;;;;;;;;;;15.40;100.00;99121.56;7386318;19;19910;-53
2022/10/17 17:23:15;;;;;;;;;;;;;;;15.15;100.00;99125.91;7390363;19;19903;-50
2022/10/17 17:25:45;;;;;;;;;;;;;;;15.44;100.00;99117.75;7386454;19;19917;-56
2022/10/17 17:28:14;;;;;;;;;;;;;;;15.33;100.00;99120.28;7388941;19;19948;-53
2022/10/17 17:30:43;;;;;;;;;;;;;;;15.39;100.00;99129.63;7392646;19;19919;-55
2022/10/17 17:33:13;;;;;;;;;;;;;;;15.55;100.00;99133.81;7401795;19;19982;-53
2022/10/17 17:39:10;;;;;;;;;;;;;;;15.37;100.00;99129.72;7401517;19;19921;-53
2022/10/17 17:58:25;;;;;;;;;;;;;;;15.05;100.00;99125.63;7398768;19;19961;-49
2022/10/17 18:00:54;;;;;;;;;;;;;;;14.94;100.00;99133.44;7393394;19;20304;-54
2022/10/17 18:03:23;;;;;;;;;;;;;;;14.93;100.00;99130.88;7386038;19;19936;-55
2022/10/17 18:05:52;;;;;;;;;;;;;;;15.05;100.00;99124.81;7386486;19;20259;-53
2022/10/17 18:08:22;;;;;;;;;;;;;;;14.81;100.00;99129.03;7382271;19;19918;-53
2022/10/17 18:10:53;;;;;;;;;;;;;;;14.87;100.00;99126.00;7388125;19;19922;-54
2022/10/17 18:13:26;;;;;;;;;;;;;;;14.91;100.00;99123.06;7393715;19;19923;-49
2022/10/17 18:15:58;;;;;;;;;;;;;;;14.62;100.00;99134.66;7387988;19;20286;-49
2022/10/17 18:18:29;;;;;;;;;;;;;;;14.49;100.00;99131.94;7383836;19;20448;-51
2022/10/17 18:20:58;;;;;;;;;;;;;;;14.68;100.00;99128.13;7387261;19;19946;-51
2022/10/17 18:23:28;;;;;;;;;;;;;;;14.72;100.00;99122.50;7385196;19;19918;-59
2022/10/17 18:25:59;;;;;;;;;;;;;;;14.71;100.00;99126.13;7382818;19;20920;-49
2022/10/17 18:28:31;;;;;;;;;;;;;;;14.66;100.00;99127.34;7386258;19;19981;-50
2022/10/17 18:31:05;;;;;;;;;;;;;;;14.76;100.00;99126.66;7383301;19;19914;-53
2022/10/17 18:33:35;;;;;;;;;;;;;;;14.72;100.00;99130.47;7386309;19;19918;-54
2022/10/17 18:36:05;;;;;;;;;;;;;;;14.99;100.00;99135.81;7386930;19;19919;-53
2022/10/17 18:38:35;;;;;;;;;;;;;;;14.74;100.00;99125.06;7382238;19;19942;-50
2022/10/17 18:41:06;;;;;;;;;;;;;;;14.70;100.00;99124.41;7386814;19;19919;-48
2022/10/17 18:43:39;;;;;;;;;;;;;;;14.68;100.00;99122.81;7387182;19;20003;-52
2022/10/17 18:46:09;;;;;;;;;;;;;;;14.59;100.00;99129.53;7381782;19;19923;-49
2022/10/17 18:48:41;;;;;;;;;;;;;;;14.65;100.00;99123.00;7385021;19;19918;-52
2022/10/17 18:51:12;;;;;;;;;;;;;;;14.81;100.00;99121.94;7386039;19;19918;-53
2022/10/17 18:53:42;;;;;;;;;;;;;;;14.53;100.00;99131.75;7380185;19;19915;-52